Terminal Aerodrome Forecast
Issued by NWS

Home | Current Version | Previous Version | Graphics & Text | Print | Product List | Glossary On
Versions: 1 2 3 4 5 6 7 8 9 10 11 12 13 14 15 16 17 18
000
FTUS43 KMPX 230500
TAFRWF
TAF
KRWF 230520Z 2306/2406 09012KT 3SM -RASN BR OVC004
     FM230900 05013KT 4SM BR OVC007
     FM231100 03014G20KT 2SM -SN BR OVC004
     FM231900 35012G20KT 4SM -SN OVC006=

USA.gov is the U.S. government's official web portal to all federal, state and local government web resources and services.